sensor_id;sensor_type;location;lat;lon;timestamp;temperature;humidity
6102;DHT22;3081;50.584;7.032;2023-04-15T00:00:56;6.60;93.20
6102;DHT22;3081;50.584;7.032;2023-04-15T00:03:24;6.60;93.40
6102;DHT22;3081;50.584;7.032;2023-04-15T00:05:52;6.50;93.70
6102;DHT22;3081;50.584;7.032;2023-04-15T00:08:19;6.50;93.90
6102;DHT22;3081;50.584;7.032;2023-04-15T00:10:46;6.40;94.20
6102;DHT22;3081;50.584;7.032;2023-04-15T00:13:13;6.40;94.30
6102;DHT22;3081;50.584;7.032;2023-04-15T00:15:41;6.30;94.30
6102;DHT22;3081;50.584;7.032;2023-04-15T00:18:08;6.30;94.50
6102;DHT22;3081;50.584;7.032;2023-04-15T00:20:35;6.30;94.70
6102;DHT22;3081;50.584;7.032;2023-04-15T00:23:03;6.20;94.90
6102;DHT22;3081;50.584;7.032;2023-04-15T00:25:30;6.20;94.90
6102;DHT22;3081;50.584;7.032;2023-04-15T00:27:57;6.20;95.00
6102;DHT22;3081;50.584;7.032;2023-04-15T00:30:24;6.20;95.00
6102;DHT22;3081;50.584;7.032;2023-04-15T00:32:51;6.30;95.10
6102;DHT22;3081;50.584;7.032;2023-04-15T00:35:18;6.20;95.30
6102;DHT22;3081;50.584;7.032;2023-04-15T00:37:45;6.20;95.30
6102;DHT22;3081;50.584;7.032;2023-04-15T00:40:16;6.20;95.40
6102;DHT22;3081;50.584;7.032;2023-04-15T00:42:44;6.20;95.40
6102;DHT22;3081;50.584;7.032;2023-04-15T00:45:11;6.20;95.50
6102;DHT22;3081;50.584;7.032;2023-04-15T00:47:40;6.20;95.50
6102;DHT22;3081;50.584;7.032;2023-04-15T00:50:08;6.20;95.50
6102;DHT22;3081;50.584;7.032;2023-04-15T00:52:35;6.20;95.70
6102;DHT22;3081;50.584;7.032;2023-04-15T00:55:03;6.10;95.60
6102;DHT22;3081;50.584;7.032;2023-04-15T00:57:32;6.10;95.60
6102;DHT22;3081;50.584;7.032;2023-04-15T00:59:59;6.10;95.70
6102;DHT22;3081;50.584;7.032;2023-04-15T01:02:27;6.10;95.80
6102;DHT22;3081;50.584;7.032;2023-04-15T01:04:54;6.10;95.80
6102;DHT22;3081;50.584;7.032;2023-04-15T01:07:22;6.00;96.00
6102;DHT22;3081;50.584;7.032;2023-04-15T01:09:49;5.90;96.40
6102;DHT22;3081;50.584;7.032;2023-04-15T01:12:16;5.80;96.80
6102;DHT22;3081;50.584;7.032;2023-04-15T01:14:45;5.60;97.10
6102;DHT22;3081;50.584;7.032;2023-04-15T01:17:12;5.60;97.20
6102;DHT22;3081;50.584;7.032;2023-04-15T01:19:39;5.50;97.20
6102;DHT22;3081;50.584;7.032;2023-04-15T01:22:06;5.50;97.40
6102;DHT22;3081;50.584;7.032;2023-04-15T01:24:33;5.50;97.50
6102;DHT22;3081;50.584;7.032;2023-04-15T01:27:03;5.60;97.60
6102;DHT22;3081;50.584;7.032;2023-04-15T01:29:30;5.70;97.60
6102;DHT22;3081;50.584;7.032;2023-04-15T01:31:58;5.70;97.60
6102;DHT22;3081;50.584;7.032;2023-04-15T01:34:25;5.80;97.60
6102;DHT22;3081;50.584;7.032;2023-04-15T01:36:52;5.70;97.70
6102;DHT22;3081;50.584;7.032;2023-04-15T01:39:18;5.70;98.10
6102;DHT22;3081;50.584;7.032;2023-04-15T01:41:45;5.60;98.50
6102;DHT22;3081;50.584;7.032;2023-04-15T01:44:14;5.40;98.70
6102;DHT22;3081;50.584;7.032;2023-04-15T01:46:41;5.30;98.90
6102;DHT22;3081;50.584;7.032;2023-04-15T01:49:08;5.20;99.00
6102;DHT22;3081;50.584;7.032;2023-04-15T01:51:35;5.20;99.30
6102;DHT22;3081;50.584;7.032;2023-04-15T01:54:02;5.10;99.50
6102;DHT22;3081;50.584;7.032;2023-04-15T01:56:29;5.10;99.80
6102;DHT22;3081;50.584;7.032;2023-04-15T01:58:55;5.00;99.90
6102;DHT22;3081;50.584;7.032;2023-04-15T02:01:24;5.00;99.90
6102;DHT22;3081;50.584;7.032;2023-04-15T02:03:51;4.90;99.90
6102;DHT22;3081;50.584;7.032;2023-04-15T02:06:18;5.00;99.90
6102;DHT22;3081;50.584;7.032;2023-04-15T02:08:45;4.90;99.90
6102;DHT22;3081;50.584;7.032;2023-04-15T02:11:12;4.90;99.90
6102;DHT22;3081;50.584;7.032;2023-04-15T02:13:40;4.90;99.90
6102;DHT22;3081;50.584;7.032;2023-04-15T02:16:15;5.00;99.90
6102;DHT22;3081;50.584;7.032;2023-04-15T02:18:43;4.90;99.90
6102;DHT22;3081;50.584;7.032;2023-04-15T02:21:10;4.90;99.90
6102;DHT22;3081;50.584;7.032;2023-04-15T02:23:37;4.90;99.90
6102;DHT22;3081;50.584;7.032;2023-04-15T02:26:04;4.80;99.90
6102;DHT22;3081;50.584;7.032;2023-04-15T02:28:31;4.90;99.90
6102;DHT22;3081;50.584;7.032;2023-04-15T02:30:58;4.80;99.90
6102;DHT22;3081;50.584;7.032;2023-04-15T02:33:26;4.80;99.90
6102;DHT22;3081;50.584;7.032;2023-04-15T02:35:55;4.70;99.90
6102;DHT22;3081;50.584;7.032;2023-04-15T02:38:21;4.70;99.90
6102;DHT22;3081;50.584;7.032;2023-04-15T02:40:48;4.70;99.90
6102;DHT22;3081;50.584;7.032;2023-04-15T02:43:16;4.70;99.90
6102;DHT22;3081;50.584;7.032;2023-04-15T02:45:43;4.70;99.90
6102;DHT22;3081;50.584;7.032;2023-04-15T02:48:10;4.70;99.90
6102;DHT22;3081;50.584;7.032;2023-04-15T02:50:37;4.70;99.90
6102;DHT22;3081;50.584;7.032;2023-04-15T02:53:06;4.70;99.90
6102;DHT22;3081;50.584;7.032;2023-04-15T02:55:33;4.80;99.90
6102;DHT22;3081;50.584;7.032;2023-04-15T02:58:00;4.80;99.90
6102;DHT22;3081;50.584;7.032;2023-04-15T03:00:27;4.80;99.90
6102;DHT22;3081;50.584;7.032;2023-04-15T03:02:57;4.80;99.90
6102;DHT22;3081;50.584;7.032;2023-04-15T03:05:25;4.80;99.90
6102;DHT22;3081;50.584;7.032;2023-04-15T03:07:52;4.80;99.90
6102;DHT22;3081;50.584;7.032;2023-04-15T03:10:21;4.80;99.90
6102;DHT22;3081;50.584;7.032;2023-04-15T03:12:48;4.90;99.90
6102;DHT22;3081;50.584;7.032;2023-04-15T03:15:14;4.80;99.90
6102;DHT22;3081;50.584;7.032;2023-04-15T03:17:41;4.80;99.90
6102;DHT22;3081;50.584;7.032;2023-04-15T03:20:09;4.80;99.90
6102;DHT22;3081;50.584;7.032;2023-04-15T03:22:36;4.70;99.90
6102;DHT22;3081;50.584;7.032;2023-04-15T03:25:03;4.70;99.90
6102;DHT22;3081;50.584;7.032;2023-04-15T03:27:31;4.70;99.90
6102;DHT22;3081;50.584;7.032;2023-04-15T03:29:58;4.80;99.90
6102;DHT22;3081;50.584;7.032;2023-04-15T03:32:25;4.80;99.90
6102;DHT22;3081;50.584;7.032;2023-04-15T03:34:52;4.90;99.90
6102;DHT22;3081;50.584;7.032;2023-04-15T03:37:19;4.90;99.90
6102;DHT22;3081;50.584;7.032;2023-04-15T03:39:46;4.80;99.90
6102;DHT22;3081;50.584;7.032;2023-04-15T03:42:13;4.70;99.90
6102;DHT22;3081;50.584;7.032;2023-04-15T03:44:41;4.70;99.90
6102;DHT22;3081;50.584;7.032;2023-04-15T03:47:08;4.70;99.90
6102;DHT22;3081;50.584;7.032;2023-04-15T03:49:35;4.70;99.90
6102;DHT22;3081;50.584;7.032;2023-04-15T03:52:02;4.60;99.90
6102;DHT22;3081;50.584;7.032;2023-04-15T03:54:29;4.60;99.90
6102;DHT22;3081;50.584;7.032;2023-04-15T03:56:56;4.70;99.90
6102;DHT22;3081;50.584;7.032;2023-04-15T03:59:23;4.70;99.90
6102;DHT22;3081;50.584;7.032;2023-04-15T04:01:51;4.70;99.90
6102;DHT22;3081;50.584;7.032;2023-04-15T04:04:18;4.70;99.90
6102;DHT22;3081;50.584;7.032;2023-04-15T04:06:45;4.80;99.90
6102;DHT22;3081;50.584;7.032;2023-04-15T04:09:12;4.80;99.90
6102;DHT22;3081;50.584;7.032;2023-04-15T04:11:39;4.80;99.90
6102;DHT22;3081;50.584;7.032;2023-04-15T04:14:06;4.90;99.90
6102;DHT22;3081;50.584;7.032;2023-04-15T04:16:33;4.90;99.90
6102;DHT22;3081;50.584;7.032;2023-04-15T04:19:01;4.90;99.90
6102;DHT22;3081;50.584;7.032;2023-04-15T04:21:28;4.90;99.90
6102;DHT22;3081;50.584;7.032;2023-04-15T04:23:55;5.00;99.90
6102;DHT22;3081;50.584;7.032;2023-04-15T04:26:23;4.90;99.90
6102;DHT22;3081;50.584;7.032;2023-04-15T04:28:50;5.00;99.90
6102;DHT22;3081;50.584;7.032;2023-04-15T04:31:17;4.90;99.90
6102;DHT22;3081;50.584;7.032;2023-04-15T04:33:44;4.70;99.90
6102;DHT22;3081;50.584;7.032;2023-04-15T04:36:13;4.70;99.90
6102;DHT22;3081;50.584;7.032;2023-04-15T04:38:40;4.70;99.90
6102;DHT22;3081;50.584;7.032;2023-04-15T04:41:07;4.60;99.90
6102;DHT22;3081;50.584;7.032;2023-04-15T04:43:33;4.70;99.90
6102;DHT22;3081;50.584;7.032;2023-04-15T04:46:00;4.70;99.90
6102;DHT22;3081;50.584;7.032;2023-04-15T04:48:27;4.80;99.90
6102;DHT22;3081;50.584;7.032;2023-04-15T04:50:54;4.80;99.90
6102;DHT22;3081;50.584;7.032;2023-04-15T04:53:23;4.90;99.90
6102;DHT22;3081;50.584;7.032;2023-04-15T04:55:50;4.80;99.90
6102;DHT22;3081;50.584;7.032;2023-04-15T04:58:17;4.80;99.90
6102;DHT22;3081;50.584;7.032;2023-04-15T05:00:44;4.70;99.90
6102;DHT22;3081;50.584;7.032;2023-04-15T05:03:12;4.60;99.90
6102;DHT22;3081;50.584;7.032;2023-04-15T05:05:39;4.60;99.90
6102;DHT22;3081;50.584;7.032;2023-04-15T05:08:06;4.70;99.90
6102;DHT22;3081;50.584;7.032;2023-04-15T05:10:34;4.70;99.90
6102;DHT22;3081;50.584;7.032;2023-04-15T05:13:01;4.70;99.90
6102;DHT22;3081;50.584;7.032;2023-04-15T05:15:28;4.70;99.90
6102;DHT22;3081;50.584;7.032;2023-04-15T05:17:55;4.80;99.90
6102;DHT22;3081;50.584;7.032;2023-04-15T05:20:22;4.70;99.90
6102;DHT22;3081;50.584;7.032;2023-04-15T05:22:49;4.80;99.90
6102;DHT22;3081;50.584;7.032;2023-04-15T05:25:16;4.80;99.90
6102;DHT22;3081;50.584;7.032;2023-04-15T05:27:44;4.80;99.90
6102;DHT22;3081;50.584;7.032;2023-04-15T05:30:11;4.90;99.90
6102;DHT22;3081;50.584;7.032;2023-04-15T05:32:42;4.90;99.90
6102;DHT22;3081;50.584;7.032;2023-04-15T05:35:13;4.90;99.90
6102;DHT22;3081;50.584;7.032;2023-04-15T05:37:40;4.90;99.90
6102;DHT22;3081;50.584;7.032;2023-04-15T05:40:07;4.90;99.90
6102;DHT22;3081;50.584;7.032;2023-04-15T05:42:35;5.00;99.90
6102;DHT22;3081;50.584;7.032;2023-04-15T05:45:04;5.10;99.90
6102;DHT22;3081;50.584;7.032;2023-04-15T05:47:34;5.30;99.90
6102;DHT22;3081;50.584;7.032;2023-04-15T05:50:01;5.60;99.90
6102;DHT22;3081;50.584;7.032;2023-04-15T05:52:29;5.80;99.90
6102;DHT22;3081;50.584;7.032;2023-04-15T05:54:55;5.90;99.90
6102;DHT22;3081;50.584;7.032;2023-04-15T05:57:23;6.00;99.90
6102;DHT22;3081;50.584;7.032;2023-04-15T05:59:50;6.10;99.90
6102;DHT22;3081;50.584;7.032;2023-04-15T06:02:18;6.20;99.90
6102;DHT22;3081;50.584;7.032;2023-04-15T06:04:45;6.30;99.90
6102;DHT22;3081;50.584;7.032;2023-04-15T06:07:12;6.40;99.90
6102;DHT22;3081;50.584;7.032;2023-04-15T06:09:40;6.60;99.90
6102;DHT22;3081;50.584;7.032;2023-04-15T06:12:06;6.70;99.90
6102;DHT22;3081;50.584;7.032;2023-04-15T06:14:36;6.80;99.90
6102;DHT22;3081;50.584;7.032;2023-04-15T06:17:03;7.00;99.90
6102;DHT22;3081;50.584;7.032;2023-04-15T06:19:31;7.20;99.90
6102;DHT22;3081;50.584;7.032;2023-04-15T06:21:59;7.30;99.90
6102;DHT22;3081;50.584;7.032;2023-04-15T06:24:26;7.40;99.90
6102;DHT22;3081;50.584;7.032;2023-04-15T06:26:53;7.30;99.90
6102;DHT22;3081;50.584;7.032;2023-04-15T06:29:20;7.40;99.90
6102;DHT22;3081;50.584;7.032;2023-04-15T06:31:47;7.30;99.90
6102;DHT22;3081;50.584;7.032;2023-04-15T06:34:14;7.30;99.90
6102;DHT22;3081;50.584;7.032;2023-04-15T06:36:42;7.20;99.90
6102;DHT22;3081;50.584;7.032;2023-04-15T06:39:09;7.20;99.90
6102;DHT22;3081;50.584;7.032;2023-04-15T06:41:36;7.40;99.90
6102;DHT22;3081;50.584;7.032;2023-04-15T06:44:03;7.60;99.90
6102;DHT22;3081;50.584;7.032;2023-04-15T06:46:30;7.70;99.90
6102;DHT22;3081;50.584;7.032;2023-04-15T06:48:57;7.70;99.90
6102;DHT22;3081;50.584;7.032;2023-04-15T06:51:24;7.80;99.90
6102;DHT22;3081;50.584;7.032;2023-04-15T06:53:52;7.90;99.90
6102;DHT22;3081;50.584;7.032;2023-04-15T06:56:19;8.00;99.90
6102;DHT22;3081;50.584;7.032;2023-04-15T06:58:47;8.10;99.90
6102;DHT22;3081;50.584;7.032;2023-04-15T07:01:16;8.30;99.90
6102;DHT22;3081;50.584;7.032;2023-04-15T07:03:43;8.30;99.90
6102;DHT22;3081;50.584;7.032;2023-04-15T07:06:10;8.40;99.90
6102;DHT22;3081;50.584;7.032;2023-04-15T07:08:37;8.60;99.90
6102;DHT22;3081;50.584;7.032;2023-04-15T07:11:06;8.80;99.90
6102;DHT22;3081;50.584;7.032;2023-04-15T07:13:33;9.00;99.90
6102;DHT22;3081;50.584;7.032;2023-04-15T07:16:01;9.20;99.90
6102;DHT22;3081;50.584;7.032;2023-04-15T07:18:28;9.30;99.90
6102;DHT22;3081;50.584;7.032;2023-04-15T07:20:55;9.30;99.90
6102;DHT22;3081;50.584;7.032;2023-04-15T07:23:22;9.40;99.90
6102;DHT22;3081;50.584;7.032;2023-04-15T07:25:50;9.40;99.90
6102;DHT22;3081;50.584;7.032;2023-04-15T07:28:18;9.40;99.90
6102;DHT22;3081;50.584;7.032;2023-04-15T07:30:46;9.60;99.90
6102;DHT22;3081;50.584;7.032;2023-04-15T07:33:13;9.80;99.90
6102;DHT22;3081;50.584;7.032;2023-04-15T07:35:40;9.90;99.90
6102;DHT22;3081;50.584;7.032;2023-04-15T07:38:07;10.20;99.90
6102;DHT22;3081;50.584;7.032;2023-04-15T07:40:34;10.50;99.90
6102;DHT22;3081;50.584;7.032;2023-04-15T07:43:00;10.70;99.90
6102;DHT22;3081;50.584;7.032;2023-04-15T07:45:29;10.80;99.60
6102;DHT22;3081;50.584;7.032;2023-04-15T07:47:56;10.90;99.90
6102;DHT22;3081;50.584;7.032;2023-04-15T07:50:23;11.00;99.20
6102;DHT22;3081;50.584;7.032;2023-04-15T07:52:50;11.20;99.50
6102;DHT22;3081;50.584;7.032;2023-04-15T07:55:18;11.40;99.40
6102;DHT22;3081;50.584;7.032;2023-04-15T07:57:47;11.70;99.40
6102;DHT22;3081;50.584;7.032;2023-04-15T08:00:15;11.90;98.50
6102;DHT22;3081;50.584;7.032;2023-04-15T08:02:44;12.00;97.90
6102;DHT22;3081;50.584;7.032;2023-04-15T08:05:13;12.10;97.70
6102;DHT22;3081;50.584;7.032;2023-04-15T08:07:40;12.30;97.60
6102;DHT22;3081;50.584;7.032;2023-04-15T08:10:07;12.50;97.50
6102;DHT22;3081;50.584;7.032;2023-04-15T08:12:34;12.60;97.00
6102;DHT22;3081;50.584;7.032;2023-04-15T08:15:01;12.60;97.00
6102;DHT22;3081;50.584;7.032;2023-04-15T08:17:28;12.60;97.10
6102;DHT22;3081;50.584;7.032;2023-04-15T08:19:56;12.70;96.80
6102;DHT22;3081;50.584;7.032;2023-04-15T08:22:23;12.60;96.80
6102;DHT22;3081;50.584;7.032;2023-04-15T08:24:50;12.50;96.70
6102;DHT22;3081;50.584;7.032;2023-04-15T08:27:17;12.50;97.10
6102;DHT22;3081;50.584;7.032;2023-04-15T08:29:44;12.50;97.10
6102;DHT22;3081;50.584;7.032;2023-04-15T08:32:11;12.60;97.90
6102;DHT22;3081;50.584;7.032;2023-04-15T08:34:39;12.80;97.70
6102;DHT22;3081;50.584;7.032;2023-04-15T08:37:07;13.00;97.20
6102;DHT22;3081;50.584;7.032;2023-04-15T08:39:34;13.10;97.40
6102;DHT22;3081;50.584;7.032;2023-04-15T08:42:02;13.30;96.90
6102;DHT22;3081;50.584;7.032;2023-04-15T08:44:33;13.30;96.70
6102;DHT22;3081;50.584;7.032;2023-04-15T08:47:01;13.40;96.20
6102;DHT22;3081;50.584;7.032;2023-04-15T08:49:31;13.40;96.70
6102;DHT22;3081;50.584;7.032;2023-04-15T08:51:58;13.60;97.30
6102;DHT22;3081;50.584;7.032;2023-04-15T08:54:27;14.00;96.70
6102;DHT22;3081;50.584;7.032;2023-04-15T08:56:56;14.30;96.00
6102;DHT22;3081;50.584;7.032;2023-04-15T08:59:23;14.40;95.20
6102;DHT22;3081;50.584;7.032;2023-04-15T09:01:50;14.40;95.50
6102;DHT22;3081;50.584;7.032;2023-04-15T09:04:18;14.50;95.00
6102;DHT22;3081;50.584;7.032;2023-04-15T09:06:46;14.40;95.10
6102;DHT22;3081;50.584;7.032;2023-04-15T09:09:13;14.30;94.90
6102;DHT22;3081;50.584;7.032;2023-04-15T09:11:41;14.30;95.30
6102;DHT22;3081;50.584;7.032;2023-04-15T09:14:08;14.50;95.20
6102;DHT22;3081;50.584;7.032;2023-04-15T09:16:56;14.50;95.10
6102;DHT22;3081;50.584;7.032;2023-04-15T09:19:24;14.60;95.20
6102;DHT22;3081;50.584;7.032;2023-04-15T09:21:53;14.80;95.20
6102;DHT22;3081;50.584;7.032;2023-04-15T09:24:21;14.90;94.60
6102;DHT22;3081;50.584;7.032;2023-04-15T09:26:51;15.00;94.80
6102;DHT22;3081;50.584;7.032;2023-04-15T09:29:18;15.30;94.80
6102;DHT22;3081;50.584;7.032;2023-04-15T09:31:45;15.80;94.40
6102;DHT22;3081;50.584;7.032;2023-04-15T09:34:12;16.10;93.80
6102;DHT22;3081;50.584;7.032;2023-04-15T09:36:51;16.40;93.40
6102;DHT22;3081;50.584;7.032;2023-04-15T09:39:19;16.60;92.40
6102;DHT22;3081;50.584;7.032;2023-04-15T09:41:45;16.50;92.30
6102;DHT22;3081;50.584;7.032;2023-04-15T09:44:23;16.40;92.60
6102;DHT22;3081;50.584;7.032;2023-04-15T09:46:50;16.40;92.00
6102;DHT22;3081;50.584;7.032;2023-04-15T09:49:17;16.60;92.20
6102;DHT22;3081;50.584;7.032;2023-04-15T09:51:45;17.10;92.20
6102;DHT22;3081;50.584;7.032;2023-04-15T09:54:18;17.60;89.60
6102;DHT22;3081;50.584;7.032;2023-04-15T09:56:46;17.10;90.60
6102;DHT22;3081;50.584;7.032;2023-04-15T09:59:13;17.30;90.70
6102;DHT22;3081;50.584;7.032;2023-04-15T10:01:41;17.60;90.50
6102;DHT22;3081;50.584;7.032;2023-04-15T10:04:09;18.10;89.00
6102;DHT22;3081;50.584;7.032;2023-04-15T10:06:36;18.20;88.40
6102;DHT22;3081;50.584;7.032;2023-04-15T10:09:04;17.70;88.60
6102;DHT22;3081;50.584;7.032;2023-04-15T10:11:32;17.30;89.20
6102;DHT22;3081;50.584;7.032;2023-04-15T10:14:01;17.00;90.00
6102;DHT22;3081;50.584;7.032;2023-04-15T10:16:28;17.10;90.40
6102;DHT22;3081;50.584;7.032;2023-04-15T10:19:01;16.80;90.60
6102;DHT22;3081;50.584;7.032;2023-04-15T10:21:29;16.50;90.60
6102;DHT22;3081;50.584;7.032;2023-04-15T10:23:57;16.20;91.10
6102;DHT22;3081;50.584;7.032;2023-04-15T10:26:25;16.00;91.50
6102;DHT22;3081;50.584;7.032;2023-04-15T10:28:53;16.20;90.60
6102;DHT22;3081;50.584;7.032;2023-04-15T10:31:20;16.90;90.30
6102;DHT22;3081;50.584;7.032;2023-04-15T10:33:47;17.70;86.40
6102;DHT22;3081;50.584;7.032;2023-04-15T10:36:17;18.40;83.40
6102;DHT22;3081;50.584;7.032;2023-04-15T10:38:45;18.40;82.20
6102;DHT22;3081;50.584;7.032;2023-04-15T10:41:16;18.50;77.90
6102;DHT22;3081;50.584;7.032;2023-04-15T10:43:48;18.30;77.60
6102;DHT22;3081;50.584;7.032;2023-04-15T10:46:21;18.60;75.00
6102;DHT22;3081;50.584;7.032;2023-04-15T10:48:52;19.40;74.90
6102;DHT22;3081;50.584;7.032;2023-04-15T10:51:30;20.40;70.90
6102;DHT22;3081;50.584;7.032;2023-04-15T10:53:58;21.40;65.90
6102;DHT22;3081;50.584;7.032;2023-04-15T10:56:27;21.80;62.80
6102;DHT22;3081;50.584;7.032;2023-04-15T10:58:55;21.60;64.10
6102;DHT22;3081;50.584;7.032;2023-04-15T11:01:49;21.90;63.20
6102;DHT22;3081;50.584;7.032;2023-04-15T11:04:51;22.40;61.00
6102;DHT22;3081;50.584;7.032;2023-04-15T11:07:36;23.00;61.60
6102;DHT22;3081;50.584;7.032;2023-04-15T11:13:27;23.70;57.90
6102;DHT22;3081;50.584;7.032;2023-04-15T11:15:59;23.70;57.70
6102;DHT22;3081;50.584;7.032;2023-04-15T11:18:31;23.50;57.70
6102;DHT22;3081;50.584;7.032;2023-04-15T11:21:01;23.00;57.60
6102;DHT22;3081;50.584;7.032;2023-04-15T11:23:35;22.40;58.40
6102;DHT22;3081;50.584;7.032;2023-04-15T11:26:04;21.80;59.70
6102;DHT22;3081;50.584;7.032;2023-04-15T11:28:34;20.90;61.40
6102;DHT22;3081;50.584;7.032;2023-04-15T11:31:09;20.20;63.20
6102;DHT22;3081;50.584;7.032;2023-04-15T11:33:36;19.70;64.50
6102;DHT22;3081;50.584;7.032;2023-04-15T11:36:04;19.50;65.60
6102;DHT22;3081;50.584;7.032;2023-04-15T11:38:33;19.60;67.00
6102;DHT22;3081;50.584;7.032;2023-04-15T11:41:00;19.60;68.10
6102;DHT22;3081;50.584;7.032;2023-04-15T11:43:27;19.30;68.10
6102;DHT22;3081;50.584;7.032;2023-04-15T11:45:58;18.80;69.90
6102;DHT22;3081;50.584;7.032;2023-04-15T11:48:26;18.50;68.50
6102;DHT22;3081;50.584;7.032;2023-04-15T11:50:57;18.60;69.90
6102;DHT22;3081;50.584;7.032;2023-04-15T11:53:37;18.60;69.50
6102;DHT22;3081;50.584;7.032;2023-04-15T11:56:06;18.70;70.60
6102;DHT22;3081;50.584;7.032;2023-04-15T11:58:34;19.00;69.30
6102;DHT22;3081;50.584;7.032;2023-04-15T12:01:03;19.00;69.70
6102;DHT22;3081;50.584;7.032;2023-04-15T12:03:36;19.10;69.40
6102;DHT22;3081;50.584;7.032;2023-04-15T12:06:11;19.20;69.50
6102;DHT22;3081;50.584;7.032;2023-04-15T12:09:00;19.30;70.20
6102;DHT22;3081;50.584;7.032;2023-04-15T12:11:30;19.20;69.10
6102;DHT22;3081;50.584;7.032;2023-04-15T12:13:58;18.80;68.80
6102;DHT22;3081;50.584;7.032;2023-04-15T12:16:29;18.50;70.80
6102;DHT22;3081;50.584;7.032;2023-04-15T12:18:57;18.30;70.90
6102;DHT22;3081;50.584;7.032;2023-04-15T12:21:26;17.90;72.70
6102;DHT22;3081;50.584;7.032;2023-04-15T12:23:55;17.60;73.40
6102;DHT22;3081;50.584;7.032;2023-04-15T12:33:04;16.60;76.20
6102;DHT22;3081;50.584;7.032;2023-04-15T12:35:30;16.30;76.60
6102;DHT22;3081;50.584;7.032;2023-04-15T12:37:57;16.10;78.50
6102;DHT22;3081;50.584;7.032;2023-04-15T12:40:24;15.90;79.10
6102;DHT22;3081;50.584;7.032;2023-04-15T12:42:51;15.90;78.90
6102;DHT22;3081;50.584;7.032;2023-04-15T12:45:18;16.00;79.20
6102;DHT22;3081;50.584;7.032;2023-04-15T12:47:46;16.10;78.70
6102;DHT22;3081;50.584;7.032;2023-04-15T12:50:14;16.30;79.40
6102;DHT22;3081;50.584;7.032;2023-04-15T12:52:42;16.20;78.70
6102;DHT22;3081;50.584;7.032;2023-04-15T12:55:09;16.00;79.00
6102;DHT22;3081;50.584;7.032;2023-04-15T12:57:36;15.70;79.20
6102;DHT22;3081;50.584;7.032;2023-04-15T13:00:05;15.60;80.30
6102;DHT22;3081;50.584;7.032;2023-04-15T13:02:33;15.40;81.00
6102;DHT22;3081;50.584;7.032;2023-04-15T13:05:00;15.30;82.30
6102;DHT22;3081;50.584;7.032;2023-04-15T13:07:29;15.20;82.70
6102;DHT22;3081;50.584;7.032;2023-04-15T13:09:56;15.10;82.80
6102;DHT22;3081;50.584;7.032;2023-04-15T13:12:23;14.90;82.80
6102;DHT22;3081;50.584;7.032;2023-04-15T13:14:50;14.80;83.30
6102;DHT22;3081;50.584;7.032;2023-04-15T13:17:17;14.50;84.30
6102;DHT22;3081;50.584;7.032;2023-04-15T13:19:46;14.40;85.30
6102;DHT22;3081;50.584;7.032;2023-04-15T13:22:13;14.20;86.00
6102;DHT22;3081;50.584;7.032;2023-04-15T13:24:41;14.00;87.10
6102;DHT22;3081;50.584;7.032;2023-04-15T13:27:08;13.90;88.00
6102;DHT22;3081;50.584;7.032;2023-04-15T13:29:35;13.80;88.80
6102;DHT22;3081;50.584;7.032;2023-04-15T13:32:03;13.70;89.10
6102;DHT22;3081;50.584;7.032;2023-04-15T13:34:30;13.60;90.10
6102;DHT22;3081;50.584;7.032;2023-04-15T13:36:57;13.60;90.30
6102;DHT22;3081;50.584;7.032;2023-04-15T13:39:24;13.50;90.70
6102;DHT22;3081;50.584;7.032;2023-04-15T13:41:53;13.40;91.00
6102;DHT22;3081;50.584;7.032;2023-04-15T13:44:20;13.40;91.30
6102;DHT22;3081;50.584;7.032;2023-04-15T13:46:47;13.30;91.90
6102;DHT22;3081;50.584;7.032;2023-04-15T13:49:14;13.30;92.10
6102;DHT22;3081;50.584;7.032;2023-04-15T13:51:41;13.40;92.20
6102;DHT22;3081;50.584;7.032;2023-04-15T13:54:08;13.50;92.30
6102;DHT22;3081;50.584;7.032;2023-04-15T13:56:35;13.50;91.90
6102;DHT22;3081;50.584;7.032;2023-04-15T13:59:03;13.40;92.20
6102;DHT22;3081;50.584;7.032;2023-04-15T14:01:31;13.40;92.60
6102;DHT22;3081;50.584;7.032;2023-04-15T14:03:58;13.40;92.70
6102;DHT22;3081;50.584;7.032;2023-04-15T14:06:25;13.30;92.90
6102;DHT22;3081;50.584;7.032;2023-04-15T14:08:52;13.20;93.20
6102;DHT22;3081;50.584;7.032;2023-04-15T14:11:20;13.10;93.60
6102;DHT22;3081;50.584;7.032;2023-04-15T14:13:47;13.00;93.70
6102;DHT22;3081;50.584;7.032;2023-04-15T14:16:15;13.00;93.90
6102;DHT22;3081;50.584;7.032;2023-04-15T14:18:42;12.90;94.10
6102;DHT22;3081;50.584;7.032;2023-04-15T14:21:10;12.90;94.10
6102;DHT22;3081;50.584;7.032;2023-04-15T14:23:37;12.90;94.20
6102;DHT22;3081;50.584;7.032;2023-04-15T14:26:04;12.80;93.90
6102;DHT22;3081;50.584;7.032;2023-04-15T14:28:31;12.80;94.00
6102;DHT22;3081;50.584;7.032;2023-04-15T14:30:58;12.80;94.30
6102;DHT22;3081;50.584;7.032;2023-04-15T14:33:26;12.70;94.50
6102;DHT22;3081;50.584;7.032;2023-04-15T14:35:53;12.70;94.70
6102;DHT22;3081;50.584;7.032;2023-04-15T14:38:20;12.70;94.80
6102;DHT22;3081;50.584;7.032;2023-04-15T14:40:47;12.60;95.10
6102;DHT22;3081;50.584;7.032;2023-04-15T14:43:14;12.60;95.30
6102;DHT22;3081;50.584;7.032;2023-04-15T14:45:41;12.60;95.40
6102;DHT22;3081;50.584;7.032;2023-04-15T14:48:08;12.70;95.70
6102;DHT22;3081;50.584;7.032;2023-04-15T14:50:38;12.80;95.50
6102;DHT22;3081;50.584;7.032;2023-04-15T14:53:05;13.00;95.40
6102;DHT22;3081;50.584;7.032;2023-04-15T14:55:32;13.00;95.20
6102;DHT22;3081;50.584;7.032;2023-04-15T14:57:59;13.00;95.10
6102;DHT22;3081;50.584;7.032;2023-04-15T15:00:26;13.00;95.20
6102;DHT22;3081;50.584;7.032;2023-04-15T15:02:53;12.90;95.50
6102;DHT22;3081;50.584;7.032;2023-04-15T15:05:21;12.80;95.30
6102;DHT22;3081;50.584;7.032;2023-04-15T15:07:49;12.70;95.40
6102;DHT22;3081;50.584;7.032;2023-04-15T15:10:16;12.60;95.80
6102;DHT22;3081;50.584;7.032;2023-04-15T15:12:43;12.50;96.20
6102;DHT22;3081;50.584;7.032;2023-04-15T15:15:10;12.50;96.40
6102;DHT22;3081;50.584;7.032;2023-04-15T15:17:37;12.60;96.70
6102;DHT22;3081;50.584;7.032;2023-04-15T15:20:04;12.60;96.70
6102;DHT22;3081;50.584;7.032;2023-04-15T15:22:31;12.60;96.50
6102;DHT22;3081;50.584;7.032;2023-04-15T15:25:00;12.50;96.60
6102;DHT22;3081;50.584;7.032;2023-04-15T15:27:26;12.40;96.90
6102;DHT22;3081;50.584;7.032;2023-04-15T15:29:55;12.50;96.90
6102;DHT22;3081;50.584;7.032;2023-04-15T15:32:22;12.60;97.00
6102;DHT22;3081;50.584;7.032;2023-04-15T15:34:48;12.50;97.10
6102;DHT22;3081;50.584;7.032;2023-04-15T15:37:16;12.50;97.20
6102;DHT22;3081;50.584;7.032;2023-04-15T15:39:43;12.50;97.30
6102;DHT22;3081;50.584;7.032;2023-04-15T15:42:11;12.50;97.20
6102;DHT22;3081;50.584;7.032;2023-04-15T15:44:38;12.40;97.50
6102;DHT22;3081;50.584;7.032;2023-04-15T15:47:05;12.40;97.60
6102;DHT22;3081;50.584;7.032;2023-04-15T15:49:32;12.30;98.00
6102;DHT22;3081;50.584;7.032;2023-04-15T15:51:59;12.30;98.10
6102;DHT22;3081;50.584;7.032;2023-04-15T15:54:26;12.30;98.10
6102;DHT22;3081;50.584;7.032;2023-04-15T15:56:53;12.30;98.50
6102;DHT22;3081;50.584;7.032;2023-04-15T15:59:23;12.20;98.00
6102;DHT22;3081;50.584;7.032;2023-04-15T16:01:51;12.20;98.10
6102;DHT22;3081;50.584;7.032;2023-04-15T16:04:18;12.10;98.40
6102;DHT22;3081;50.584;7.032;2023-04-15T16:06:45;12.10;98.60
6102;DHT22;3081;50.584;7.032;2023-04-15T16:09:12;12.10;99.00
6102;DHT22;3081;50.584;7.032;2023-04-15T16:11:39;12.10;99.30
6102;DHT22;3081;50.584;7.032;2023-04-15T16:14:06;12.10;99.80
6102;DHT22;3081;50.584;7.032;2023-04-15T16:16:34;12.10;99.90
6102;DHT22;3081;50.584;7.032;2023-04-15T16:19:01;12.00;99.90
6102;DHT22;3081;50.584;7.032;2023-04-15T16:21:28;11.90;99.90
6102;DHT22;3081;50.584;7.032;2023-04-15T16:23:55;11.80;99.90